sensor_id;sensor_type;location;lat;lon;timestamp;P1;durP1;ratioP1;P2;durP2;ratioP2
12986;SDS011;58897;51.960;5.582;2023-03-20T00:01:44;11.47;;;6.17;;
12986;SDS011;58897;51.960;5.582;2023-03-20T00:04:12;9.70;;;5.60;;
12986;SDS011;58897;51.960;5.582;2023-03-20T00:06:38;9.93;;;5.70;;
12986;SDS011;58897;51.960;5.582;2023-03-20T00:09:05;9.13;;;5.47;;
12986;SDS011;58897;51.960;5.582;2023-03-20T00:11:33;11.97;;;6.20;;
12986;SDS011;58897;51.960;5.582;2023-03-20T00:14:02;11.13;;;5.77;;
12986;SDS011;58897;51.960;5.582;2023-03-20T00:16:34;11.50;;;6.53;;
12986;SDS011;58897;51.960;5.582;2023-03-20T00:19:04;12.00;;;6.63;;
12986;SDS011;58897;51.960;5.582;2023-03-20T00:21:31;10.73;;;6.63;;
12986;SDS011;58897;51.960;5.582;2023-03-20T00:23:58;14.10;;;7.30;;
12986;SDS011;58897;51.960;5.582;2023-03-20T00:26:27;13.77;;;7.50;;
12986;SDS011;58897;51.960;5.582;2023-03-20T00:28:58;12.13;;;7.57;;
12986;SDS011;58897;51.960;5.582;2023-03-20T00:33:57;15.93;;;8.43;;
12986;SDS011;58897;51.960;5.582;2023-03-20T00:36:25;17.13;;;8.80;;
12986;SDS011;58897;51.960;5.582;2023-03-20T00:38:53;14.27;;;8.30;;
12986;SDS011;58897;51.960;5.582;2023-03-20T00:41:27;14.90;;;8.67;;
12986;SDS011;58897;51.960;5.582;2023-03-20T00:43:58;15.47;;;8.97;;
12986;SDS011;58897;51.960;5.582;2023-03-20T00:46:28;17.67;;;8.47;;
12986;SDS011;58897;51.960;5.582;2023-03-20T00:49:00;17.53;;;8.73;;
12986;SDS011;58897;51.960;5.582;2023-03-20T00:51:27;21.73;;;9.93;;
12986;SDS011;58897;51.960;5.582;2023-03-20T00:53:54;15.37;;;8.37;;
12986;SDS011;58897;51.960;5.582;2023-03-20T00:59:01;14.37;;;6.93;;
12986;SDS011;58897;51.960;5.582;2023-03-20T01:01:29;16.33;;;7.30;;
12986;SDS011;58897;51.960;5.582;2023-03-20T01:03:59;14.10;;;7.23;;
12986;SDS011;58897;51.960;5.582;2023-03-20T01:06:27;13.27;;;7.27;;
12986;SDS011;58897;51.960;5.582;2023-03-20T01:08:54;16.17;;;7.03;;
12986;SDS011;58897;51.960;5.582;2023-03-20T01:11:22;12.90;;;6.23;;
12986;SDS011;58897;51.960;5.582;2023-03-20T01:13:49;13.00;;;6.37;;
12986;SDS011;58897;51.960;5.582;2023-03-20T01:16:19;15.33;;;6.73;;
12986;SDS011;58897;51.960;5.582;2023-03-20T01:18:51;20.90;;;7.63;;
12986;SDS011;58897;51.960;5.582;2023-03-20T01:21:19;14.27;;;6.23;;
12986;SDS011;58897;51.960;5.582;2023-03-20T01:23:47;16.37;;;6.63;;
12986;SDS011;58897;51.960;5.582;2023-03-20T01:26:29;11.97;;;5.30;;
12986;SDS011;58897;51.960;5.582;2023-03-20T01:28:59;10.00;;;4.53;;
12986;SDS011;58897;51.960;5.582;2023-03-20T01:31:25;8.03;;;4.43;;
12986;SDS011;58897;51.960;5.582;2023-03-20T01:33:52;8.77;;;4.07;;
12986;SDS011;58897;51.960;5.582;2023-03-20T01:36:20;8.77;;;4.77;;
12986;SDS011;58897;51.960;5.582;2023-03-20T01:38:57;12.27;;;5.77;;
12986;SDS011;58897;51.960;5.582;2023-03-20T01:41:24;12.07;;;4.70;;
12986;SDS011;58897;51.960;5.582;2023-03-20T01:43:51;6.60;;;3.90;;
12986;SDS011;58897;51.960;5.582;2023-03-20T01:46:23;8.43;;;4.67;;
12986;SDS011;58897;51.960;5.582;2023-03-20T01:51:22;7.87;;;4.27;;
12986;SDS011;58897;51.960;5.582;2023-03-20T01:54:00;9.93;;;4.30;;
12986;SDS011;58897;51.960;5.582;2023-03-20T01:56:32;8.87;;;3.97;;
12986;SDS011;58897;51.960;5.582;2023-03-20T01:59:04;7.67;;;4.27;;
12986;SDS011;58897;51.960;5.582;2023-03-20T02:01:38;7.93;;;4.03;;
12986;SDS011;58897;51.960;5.582;2023-03-20T02:04:07;7.13;;;3.97;;
12986;SDS011;58897;51.960;5.582;2023-03-20T02:06:34;11.97;;;4.90;;
12986;SDS011;58897;51.960;5.582;2023-03-20T02:09:02;8.93;;;4.73;;
12986;SDS011;58897;51.960;5.582;2023-03-20T02:11:29;7.20;;;4.30;;
12986;SDS011;58897;51.960;5.582;2023-03-20T02:13:57;8.27;;;4.30;;
12986;SDS011;58897;51.960;5.582;2023-03-20T02:16:26;8.53;;;4.40;;
12986;SDS011;58897;51.960;5.582;2023-03-20T02:18:53;7.37;;;4.13;;
12986;SDS011;58897;51.960;5.582;2023-03-20T02:46:44;12.60;;;5.80;;
12986;SDS011;58897;51.960;5.582;2023-03-20T02:54:42;10.40;;;5.63;;
12986;SDS011;58897;51.960;5.582;2023-03-20T03:02:50;11.20;;;5.33;;
12986;SDS011;58897;51.960;5.582;2023-03-20T03:05:24;11.93;;;5.80;;
12986;SDS011;58897;51.960;5.582;2023-03-20T03:07:57;10.87;;;6.03;;
12986;SDS011;58897;51.960;5.582;2023-03-20T03:10:29;16.80;;;6.93;;
12986;SDS011;58897;51.960;5.582;2023-03-20T03:13:00;13.43;;;6.57;;
12986;SDS011;58897;51.960;5.582;2023-03-20T03:15:38;11.83;;;6.40;;
12986;SDS011;58897;51.960;5.582;2023-03-20T03:18:12;11.00;;;6.17;;
12986;SDS011;58897;51.960;5.582;2023-03-20T03:20:44;14.13;;;6.83;;
12986;SDS011;58897;51.960;5.582;2023-03-20T03:23:28;16.17;;;6.93;;
12986;SDS011;58897;51.960;5.582;2023-03-20T03:25:58;12.77;;;6.30;;
12986;SDS011;58897;51.960;5.582;2023-03-20T03:28:39;12.50;;;7.00;;
12986;SDS011;58897;51.960;5.582;2023-03-20T03:31:13;17.07;;;7.47;;
12986;SDS011;58897;51.960;5.582;2023-03-20T03:33:49;15.60;;;7.57;;
12986;SDS011;58897;51.960;5.582;2023-03-20T03:44:55;13.23;;;6.97;;
12986;SDS011;58897;51.960;5.582;2023-03-20T03:50:42;14.27;;;7.37;;
12986;SDS011;58897;51.960;5.582;2023-03-20T03:53:18;14.80;;;7.37;;
12986;SDS011;58897;51.960;5.582;2023-03-20T03:55:50;16.70;;;8.00;;
12986;SDS011;58897;51.960;5.582;2023-03-20T03:58:25;14.67;;;7.53;;
12986;SDS011;58897;51.960;5.582;2023-03-20T04:00:56;14.53;;;7.37;;
12986;SDS011;58897;51.960;5.582;2023-03-20T04:03:27;15.37;;;8.03;;
12986;SDS011;58897;51.960;5.582;2023-03-20T04:05:58;21.83;;;9.57;;
12986;SDS011;58897;51.960;5.582;2023-03-20T04:08:28;13.90;;;7.73;;
12986;SDS011;58897;51.960;5.582;2023-03-20T04:10:55;15.83;;;7.97;;
12986;SDS011;58897;51.960;5.582;2023-03-20T04:13:21;19.30;;;7.93;;
12986;SDS011;58897;51.960;5.582;2023-03-20T04:15:48;15.23;;;7.97;;
12986;SDS011;58897;51.960;5.582;2023-03-20T04:18:16;15.20;;;7.47;;
12986;SDS011;58897;51.960;5.582;2023-03-20T04:20:44;20.27;;;9.60;;
12986;SDS011;58897;51.960;5.582;2023-03-20T04:23:12;20.57;;;9.33;;
12986;SDS011;58897;51.960;5.582;2023-03-20T04:25:39;20.03;;;10.00;;
12986;SDS011;58897;51.960;5.582;2023-03-20T04:28:06;22.87;;;10.97;;
12986;SDS011;58897;51.960;5.582;2023-03-20T04:30:33;19.30;;;9.63;;
12986;SDS011;58897;51.960;5.582;2023-03-20T04:32:59;18.03;;;8.43;;
12986;SDS011;58897;51.960;5.582;2023-03-20T04:35:26;19.20;;;9.27;;
12986;SDS011;58897;51.960;5.582;2023-03-20T04:37:52;17.87;;;9.50;;
12986;SDS011;58897;51.960;5.582;2023-03-20T04:40:19;17.00;;;9.77;;
12986;SDS011;58897;51.960;5.582;2023-03-20T04:42:45;20.37;;;10.60;;
12986;SDS011;58897;51.960;5.582;2023-03-20T04:45:12;17.80;;;8.87;;
12986;SDS011;58897;51.960;5.582;2023-03-20T04:47:38;25.70;;;10.57;;
12986;SDS011;58897;51.960;5.582;2023-03-20T04:50:05;17.70;;;10.10;;
12986;SDS011;58897;51.960;5.582;2023-03-20T04:52:32;22.37;;;10.67;;
12986;SDS011;58897;51.960;5.582;2023-03-20T04:54:59;19.83;;;9.53;;
12986;SDS011;58897;51.960;5.582;2023-03-20T04:57:25;18.53;;;10.10;;
12986;SDS011;58897;51.960;5.582;2023-03-20T04:59:53;21.40;;;10.30;;
12986;SDS011;58897;51.960;5.582;2023-03-20T05:02:20;14.27;;;8.80;;
12986;SDS011;58897;51.960;5.582;2023-03-20T05:04:46;16.83;;;9.57;;
12986;SDS011;58897;51.960;5.582;2023-03-20T05:07:13;20.67;;;10.03;;
12986;SDS011;58897;51.960;5.582;2023-03-20T05:09:39;19.90;;;8.90;;
12986;SDS011;58897;51.960;5.582;2023-03-20T05:12:06;20.30;;;9.53;;
12986;SDS011;58897;51.960;5.582;2023-03-20T05:14:34;17.83;;;8.77;;
12986;SDS011;58897;51.960;5.582;2023-03-20T05:17:00;14.73;;;7.90;;
12986;SDS011;58897;51.960;5.582;2023-03-20T05:19:27;14.27;;;7.53;;
12986;SDS011;58897;51.960;5.582;2023-03-20T05:21:53;19.87;;;8.53;;
12986;SDS011;58897;51.960;5.582;2023-03-20T05:24:20;12.63;;;7.23;;
12986;SDS011;58897;51.960;5.582;2023-03-20T05:26:47;14.67;;;8.13;;
12986;SDS011;58897;51.960;5.582;2023-03-20T05:29:13;17.30;;;7.83;;
12986;SDS011;58897;51.960;5.582;2023-03-20T05:31:40;17.70;;;8.10;;
12986;SDS011;58897;51.960;5.582;2023-03-20T05:34:07;15.97;;;8.27;;
12986;SDS011;58897;51.960;5.582;2023-03-20T05:36:33;12.90;;;7.07;;
12986;SDS011;58897;51.960;5.582;2023-03-20T05:39:00;20.43;;;6.73;;
12986;SDS011;58897;51.960;5.582;2023-03-20T05:41:27;12.33;;;7.07;;
12986;SDS011;58897;51.960;5.582;2023-03-20T05:43:53;13.03;;;7.60;;
12986;SDS011;58897;51.960;5.582;2023-03-20T05:46:19;15.00;;;7.57;;
12986;SDS011;58897;51.960;5.582;2023-03-20T05:48:47;13.43;;;7.47;;
12986;SDS011;58897;51.960;5.582;2023-03-20T05:51:14;13.40;;;7.00;;
12986;SDS011;58897;51.960;5.582;2023-03-20T05:53:41;16.83;;;8.07;;
12986;SDS011;58897;51.960;5.582;2023-03-20T05:56:07;15.70;;;7.40;;
12986;SDS011;58897;51.960;5.582;2023-03-20T05:58:34;14.80;;;7.23;;
12986;SDS011;58897;51.960;5.582;2023-03-20T06:01:01;13.30;;;7.40;;
12986;SDS011;58897;51.960;5.582;2023-03-20T06:03:28;14.43;;;7.40;;
12986;SDS011;58897;51.960;5.582;2023-03-20T06:05:55;15.87;;;8.03;;
12986;SDS011;58897;51.960;5.582;2023-03-20T06:08:22;12.87;;;7.00;;
12986;SDS011;58897;51.960;5.582;2023-03-20T06:10:51;14.20;;;7.33;;
12986;SDS011;58897;51.960;5.582;2023-03-20T06:13:17;14.00;;;7.37;;
12986;SDS011;58897;51.960;5.582;2023-03-20T06:15:44;15.03;;;8.07;;
12986;SDS011;58897;51.960;5.582;2023-03-20T06:18:11;14.97;;;8.27;;
12986;SDS011;58897;51.960;5.582;2023-03-20T06:20:37;13.23;;;6.67;;
12986;SDS011;58897;51.960;5.582;2023-03-20T06:23:04;15.03;;;7.87;;
12986;SDS011;58897;51.960;5.582;2023-03-20T06:25:31;18.73;;;8.00;;
12986;SDS011;58897;51.960;5.582;2023-03-20T06:27:58;17.47;;;7.87;;
12986;SDS011;58897;51.960;5.582;2023-03-20T06:30:24;14.83;;;8.23;;
12986;SDS011;58897;51.960;5.582;2023-03-20T06:32:51;15.03;;;7.67;;
12986;SDS011;58897;51.960;5.582;2023-03-20T06:35:18;18.77;;;9.70;;
12986;SDS011;58897;51.960;5.582;2023-03-20T06:37:44;15.80;;;7.97;;
12986;SDS011;58897;51.960;5.582;2023-03-20T06:40:11;17.73;;;8.10;;
12986;SDS011;58897;51.960;5.582;2023-03-20T06:42:37;14.53;;;7.37;;
12986;SDS011;58897;51.960;5.582;2023-03-20T06:45:04;13.20;;;7.43;;
12986;SDS011;58897;51.960;5.582;2023-03-20T06:47:31;14.10;;;7.10;;
12986;SDS011;58897;51.960;5.582;2023-03-20T06:49:58;14.83;;;8.13;;
12986;SDS011;58897;51.960;5.582;2023-03-20T06:52:24;12.90;;;7.23;;
12986;SDS011;58897;51.960;5.582;2023-03-20T06:54:51;12.40;;;6.67;;
12986;SDS011;58897;51.960;5.582;2023-03-20T06:57:18;15.93;;;8.43;;
12986;SDS011;58897;51.960;5.582;2023-03-20T06:59:44;19.73;;;8.57;;
12986;SDS011;58897;51.960;5.582;2023-03-20T07:02:11;15.23;;;8.03;;
12986;SDS011;58897;51.960;5.582;2023-03-20T07:04:38;13.13;;;6.73;;
12986;SDS011;58897;51.960;5.582;2023-03-20T07:07:05;13.10;;;7.17;;
12986;SDS011;58897;51.960;5.582;2023-03-20T07:09:31;13.03;;;7.57;;
12986;SDS011;58897;51.960;5.582;2023-03-20T07:11:58;16.47;;;6.97;;
12986;SDS011;58897;51.960;5.582;2023-03-20T07:14:25;14.43;;;7.00;;
12986;SDS011;58897;51.960;5.582;2023-03-20T07:16:51;14.57;;;7.23;;
12986;SDS011;58897;51.960;5.582;2023-03-20T07:19:18;10.27;;;6.23;;
12986;SDS011;58897;51.960;5.582;2023-03-20T07:21:45;16.00;;;7.90;;
12986;SDS011;58897;51.960;5.582;2023-03-20T07:24:11;14.93;;;7.07;;
12986;SDS011;58897;51.960;5.582;2023-03-20T07:26:38;12.70;;;5.83;;
12986;SDS011;58897;51.960;5.582;2023-03-20T07:29:06;13.87;;;7.33;;
12986;SDS011;58897;51.960;5.582;2023-03-20T07:31:33;16.87;;;7.23;;
12986;SDS011;58897;51.960;5.582;2023-03-20T07:33:59;13.20;;;7.47;;
12986;SDS011;58897;51.960;5.582;2023-03-20T07:36:26;14.10;;;7.40;;
12986;SDS011;58897;51.960;5.582;2023-03-20T07:38:52;14.30;;;7.63;;
12986;SDS011;58897;51.960;5.582;2023-03-20T07:41:19;15.07;;;7.60;;
12986;SDS011;58897;51.960;5.582;2023-03-20T07:43:45;17.40;;;8.33;;
12986;SDS011;58897;51.960;5.582;2023-03-20T07:46:12;13.73;;;7.53;;
12986;SDS011;58897;51.960;5.582;2023-03-20T07:48:39;14.97;;;6.43;;
12986;SDS011;58897;51.960;5.582;2023-03-20T07:51:06;11.80;;;6.63;;
12986;SDS011;58897;51.960;5.582;2023-03-20T07:53:33;12.80;;;6.50;;
12986;SDS011;58897;51.960;5.582;2023-03-20T07:55:59;14.13;;;7.53;;
12986;SDS011;58897;51.960;5.582;2023-03-20T07:58:26;13.60;;;6.37;;
12986;SDS011;58897;51.960;5.582;2023-03-20T08:00:52;15.23;;;6.70;;
12986;SDS011;58897;51.960;5.582;2023-03-20T08:03:21;16.10;;;7.37;;
12986;SDS011;58897;51.960;5.582;2023-03-20T08:05:48;17.03;;;7.87;;
12986;SDS011;58897;51.960;5.582;2023-03-20T08:08:15;14.50;;;7.33;;
12986;SDS011;58897;51.960;5.582;2023-03-20T08:10:41;9.50;;;5.90;;
12986;SDS011;58897;51.960;5.582;2023-03-20T08:13:08;13.70;;;6.70;;
12986;SDS011;58897;51.960;5.582;2023-03-20T08:15:35;17.60;;;8.03;;
12986;SDS011;58897;51.960;5.582;2023-03-20T08:18:01;10.00;;;6.10;;
12986;SDS011;58897;51.960;5.582;2023-03-20T08:20:28;17.73;;;8.53;;
12986;SDS011;58897;51.960;5.582;2023-03-20T08:22:56;10.23;;;5.50;;
12986;SDS011;58897;51.960;5.582;2023-03-20T08:25:22;15.47;;;7.33;;
12986;SDS011;58897;51.960;5.582;2023-03-20T08:27:49;16.93;;;7.83;;
12986;SDS011;58897;51.960;5.582;2023-03-20T08:30:15;17.33;;;6.93;;
12986;SDS011;58897;51.960;5.582;2023-03-20T08:32:42;15.20;;;6.17;;
12986;SDS011;58897;51.960;5.582;2023-03-20T08:35:08;12.40;;;5.10;;
12986;SDS011;58897;51.960;5.582;2023-03-20T08:37:51;16.57;;;6.37;;
12986;SDS011;58897;51.960;5.582;2023-03-20T08:40:17;11.87;;;6.17;;
12986;SDS011;58897;51.960;5.582;2023-03-20T08:42:44;13.53;;;5.87;;
12986;SDS011;58897;51.960;5.582;2023-03-20T08:45:11;16.47;;;6.47;;
12986;SDS011;58897;51.960;5.582;2023-03-20T08:47:38;15.40;;;7.10;;
12986;SDS011;58897;51.960;5.582;2023-03-20T08:50:06;12.27;;;5.97;;
12986;SDS011;58897;51.960;5.582;2023-03-20T08:52:32;11.13;;;5.63;;
12986;SDS011;58897;51.960;5.582;2023-03-20T08:54:59;12.23;;;5.27;;
12986;SDS011;58897;51.960;5.582;2023-03-20T08:57:26;11.43;;;6.03;;
12986;SDS011;58897;51.960;5.582;2023-03-20T08:59:52;11.13;;;5.27;;
12986;SDS011;58897;51.960;5.582;2023-03-20T09:02:19;15.17;;;6.20;;
12986;SDS011;58897;51.960;5.582;2023-03-20T09:04:46;13.70;;;6.30;;
12986;SDS011;58897;51.960;5.582;2023-03-20T09:07:12;13.43;;;6.10;;
12986;SDS011;58897;51.960;5.582;2023-03-20T09:09:39;13.80;;;5.37;;
12986;SDS011;58897;51.960;5.582;2023-03-20T09:12:06;10.43;;;4.37;;
12986;SDS011;58897;51.960;5.582;2023-03-20T09:14:33;12.90;;;6.77;;
12986;SDS011;58897;51.960;5.582;2023-03-20T09:16:59;10.17;;;5.37;;
12986;SDS011;58897;51.960;5.582;2023-03-20T09:19:26;10.70;;;5.67;;
12986;SDS011;58897;51.960;5.582;2023-03-20T09:21:52;13.03;;;4.93;;
12986;SDS011;58897;51.960;5.582;2023-03-20T09:24:19;9.90;;;4.67;;
12986;SDS011;58897;51.960;5.582;2023-03-20T09:26:45;10.33;;;5.23;;
12986;SDS011;58897;51.960;5.582;2023-03-20T09:29:12;12.93;;;6.53;;
12986;SDS011;58897;51.960;5.582;2023-03-20T09:31:38;15.40;;;5.10;;
12986;SDS011;58897;51.960;5.582;2023-03-20T09:34:05;10.77;;;5.33;;
12986;SDS011;58897;51.960;5.582;2023-03-20T09:36:32;12.73;;;5.37;;
12986;SDS011;58897;51.960;5.582;2023-03-20T09:38:58;10.73;;;5.13;;
12986;SDS011;58897;51.960;5.582;2023-03-20T09:41:25;15.80;;;5.47;;
12986;SDS011;58897;51.960;5.582;2023-03-20T09:49:17;9.97;;;5.27;;
12986;SDS011;58897;51.960;5.582;2023-03-20T09:51:55;14.43;;;5.03;;
12986;SDS011;58897;51.960;5.582;2023-03-20T09:54:36;13.40;;;4.53;;
12986;SDS011;58897;51.960;5.582;2023-03-20T09:57:21;9.13;;;4.60;;
12986;SDS011;58897;51.960;5.582;2023-03-20T09:59:52;8.13;;;3.90;;
12986;SDS011;58897;51.960;5.582;2023-03-20T10:02:33;9.70;;;4.10;;
12986;SDS011;58897;51.960;5.582;2023-03-20T10:05:11;10.87;;;5.20;;
12986;SDS011;58897;51.960;5.582;2023-03-20T10:07:43;6.97;;;3.77;;
12986;SDS011;58897;51.960;5.582;2023-03-20T10:10:13;10.50;;;3.80;;
12986;SDS011;58897;51.960;5.582;2023-03-20T10:12:44;11.53;;;4.23;;
12986;SDS011;58897;51.960;5.582;2023-03-20T10:15:20;9.47;;;4.63;;
12986;SDS011;58897;51.960;5.582;2023-03-20T10:20:37;10.57;;;4.43;;
12986;SDS011;58897;51.960;5.582;2023-03-20T10:26:04;10.30;;;4.80;;
12986;SDS011;58897;51.960;5.582;2023-03-20T10:28:38;10.47;;;3.80;;
12986;SDS011;58897;51.960;5.582;2023-03-20T10:36:45;10.43;;;4.37;;
12986;SDS011;58897;51.960;5.582;2023-03-20T10:42:03;8.40;;;4.23;;
12986;SDS011;58897;51.960;5.582;2023-03-20T10:44:40;7.97;;;4.43;;
12986;SDS011;58897;51.960;5.582;2023-03-20T10:47:10;9.77;;;4.10;;
12986;SDS011;58897;51.960;5.582;2023-03-20T10:49:43;8.77;;;4.10;;
12986;SDS011;58897;51.960;5.582;2023-03-20T10:52:18;11.50;;;4.70;;
12986;SDS011;58897;51.960;5.582;2023-03-20T10:55:00;13.23;;;5.37;;
12986;SDS011;58897;51.960;5.582;2023-03-20T10:57:53;7.50;;;3.60;;
12986;SDS011;58897;51.960;5.582;2023-03-20T11:00:25;8.07;;;3.97;;
12986;SDS011;58897;51.960;5.582;2023-03-20T11:02:52;9.03;;;4.47;;
12986;SDS011;58897;51.960;5.582;2023-03-20T11:08:00;8.60;;;4.13;;
12986;SDS011;58897;51.960;5.582;2023-03-20T11:10:33;13.33;;;4.17;;
12986;SDS011;58897;51.960;5.582;2023-03-20T11:16:09;11.63;;;4.67;;
12986;SDS011;58897;51.960;5.582;2023-03-20T11:18:47;10.67;;;4.77;;
12986;SDS011;58897;51.960;5.582;2023-03-20T11:21:34;9.80;;;5.07;;
12986;SDS011;58897;51.960;5.582;2023-03-20T11:24:33;12.37;;;4.17;;
12986;SDS011;58897;51.960;5.582;2023-03-20T11:27:11;13.47;;;4.67;;
12986;SDS011;58897;51.960;5.582;2023-03-20T11:29:41;10.43;;;4.80;;
12986;SDS011;58897;51.960;5.582;2023-03-20T11:32:18;11.57;;;5.20;;
12986;SDS011;58897;51.960;5.582;2023-03-20T11:37:53;9.70;;;5.20;;
12986;SDS011;58897;51.960;5.582;2023-03-20T11:40:32;16.00;;;6.47;;
12986;SDS011;58897;51.960;5.582;2023-03-20T11:45:25;16.57;;;6.30;;
12986;SDS011;58897;51.960;5.582;2023-03-20T11:47:54;11.07;;;4.67;;
12986;SDS011;58897;51.960;5.582;2023-03-20T11:50:44;13.80;;;6.83;;
12986;SDS011;58897;51.960;5.582;2023-03-20T11:53:22;11.83;;;5.13;;
12986;SDS011;58897;51.960;5.582;2023-03-20T11:56:33;7.73;;;3.93;;
12986;SDS011;58897;51.960;5.582;2023-03-20T12:01:41;14.00;;;5.03;;
12986;SDS011;58897;51.960;5.582;2023-03-20T12:04:14;11.80;;;5.33;;
12986;SDS011;58897;51.960;5.582;2023-03-20T12:06:48;15.47;;;5.90;;
12986;SDS011;58897;51.960;5.582;2023-03-20T12:11:56;10.00;;;4.33;;
12986;SDS011;58897;51.960;5.582;2023-03-20T12:14:28;11.23;;;5.87;;
12986;SDS011;58897;51.960;5.582;2023-03-20T12:19:51;10.50;;;5.00;;
12986;SDS011;58897;51.960;5.582;2023-03-20T12:22:22;12.03;;;5.27;;
12986;SDS011;58897;51.960;5.582;2023-03-20T12:24:56;11.27;;;5.20;;
12986;SDS011;58897;51.960;5.582;2023-03-20T12:27:27;16.93;;;6.70;;
12986;SDS011;58897;51.960;5.582;2023-03-20T12:30:04;10.20;;;5.00;;
12986;SDS011;58897;51.960;5.582;2023-03-20T12:32:40;12.17;;;5.60;;
12986;SDS011;58897;51.960;5.582;2023-03-20T12:35:15;12.77;;;4.83;;
12986;SDS011;58897;51.960;5.582;2023-03-20T12:37:55;13.57;;;6.53;;
12986;SDS011;58897;51.960;5.582;2023-03-20T12:40:25;12.90;;;5.17;;
12986;SDS011;58897;51.960;5.582;2023-03-20T12:43:04;10.07;;;5.10;;
12986;SDS011;58897;51.960;5.582;2023-03-20T12:45:45;13.97;;;6.13;;
12986;SDS011;58897;51.960;5.582;2023-03-20T12:48:30;13.70;;;6.37;;
12986;SDS011;58897;51.960;5.582;2023-03-20T12:51:18;13.77;;;5.77;;
12986;SDS011;58897;51.960;5.582;2023-03-20T12:57:05;12.03;;;5.83;;
12986;SDS011;58897;51.960;5.582;2023-03-20T12:59:42;9.20;;;5.23;;
12986;SDS011;58897;51.960;5.582;2023-03-20T13:10:59;16.27;;;6.97;;
12986;SDS011;58897;51.960;5.582;2023-03-20T13:24:20;12.40;;;6.13;;
12986;SDS011;58897;51.960;5.582;2023-03-20T13:27:04;11.40;;;5.83;;
12986;SDS011;58897;51.960;5.582;2023-03-20T13:32:26;14.03;;;5.27;;
12986;SDS011;58897;51.960;5.582;2023-03-20T13:35:43;11.43;;;5.43;;
12986;SDS011;58897;51.960;5.582;2023-03-20T13:38:14;12.73;;;6.47;;
12986;SDS011;58897;51.960;5.582;2023-03-20T13:40:54;13.90;;;6.13;;
12986;SDS011;58897;51.960;5.582;2023-03-20T13:43:30;11.97;;;6.50;;
12986;SDS011;58897;51.960;5.582;2023-03-20T13:48:36;14.67;;;6.70;;
12986;SDS011;58897;51.960;5.582;2023-03-20T13:56:53;12.53;;;5.97;;
12986;SDS011;58897;51.960;5.582;2023-03-20T13:59:32;15.97;;;6.90;;
12986;SDS011;58897;51.960;5.582;2023-03-20T14:05:00;12.00;;;6.30;;
12986;SDS011;58897;51.960;5.582;2023-03-20T14:07:41;14.07;;;6.43;;
12986;SDS011;58897;51.960;5.582;2023-03-20T14:10:31;11.77;;;5.47;;
12986;SDS011;58897;51.960;5.582;2023-03-20T14:13:00;18.60;;;8.70;;
12986;SDS011;58897;51.960;5.582;2023-03-20T14:15:31;15.33;;;6.13;;
12986;SDS011;58897;51.960;5.582;2023-03-20T14:18:06;16.43;;;7.70;;
12986;SDS011;58897;51.960;5.582;2023-03-20T14:20:39;14.23;;;7.37;;
12986;SDS011;58897;51.960;5.582;2023-03-20T14:23:15;15.40;;;6.27;;
12986;SDS011;58897;51.960;5.582;2023-03-20T14:25:43;14.63;;;6.20;;
12986;SDS011;58897;51.960;5.582;2023-03-20T14:30:40;12.77;;;5.53;;
12986;SDS011;58897;51.960;5.582;2023-03-20T14:35:43;17.63;;;6.60;;
12986;SDS011;58897;51.960;5.582;2023-03-20T14:44:13;13.97;;;6.03;;
12986;SDS011;58897;51.960;5.582;2023-03-20T14:49:32;15.60;;;5.60;;
12986;SDS011;58897;51.960;5.582;2023-03-20T14:54:52;12.90;;;5.57;;
12986;SDS011;58897;51.960;5.582;2023-03-20T14:57:30;14.73;;;6.67;;
12986;SDS011;58897;51.960;5.582;2023-03-20T15:00:19;12.87;;;7.13;;
12986;SDS011;58897;51.960;5.582;2023-03-20T15:02:49;14.30;;;6.57;;
12986;SDS011;58897;51.960;5.582;2023-03-20T15:05:27;12.73;;;6.50;;
12986;SDS011;58897;51.960;5.582;2023-03-20T15:07:57;12.77;;;6.13;;
12986;SDS011;58897;51.960;5.582;2023-03-20T15:10:36;7.50;;;5.23;;
12986;SDS011;58897;51.960;5.582;2023-03-20T15:13:12;14.20;;;6.67;;
12986;SDS011;58897;51.960;5.582;2023-03-20T15:15:43;13.87;;;6.43;;
12986;SDS011;58897;51.960;5.582;2023-03-20T15:18:22;14.57;;;6.93;;
12986;SDS011;58897;51.960;5.582;2023-03-20T15:20:50;15.87;;;6.50;;
12986;SDS011;58897;51.960;5.582;2023-03-20T15:23:16;16.33;;;6.23;;
12986;SDS011;58897;51.960;5.582;2023-03-20T15:25:44;12.47;;;6.17;;
12986;SDS011;58897;51.960;5.582;2023-03-20T15:28:14;11.37;;;6.30;;
12986;SDS011;58897;51.960;5.582;2023-03-20T15:30:45;13.53;;;6.63;;
12986;SDS011;58897;51.960;5.582;2023-03-20T15:33:18;12.07;;;5.77;;
12986;SDS011;58897;51.960;5.582;2023-03-20T15:39:43;12.57;;;5.23;;
12986;SDS011;58897;51.960;5.582;2023-03-20T15:41:53;15.67;;;7.27;;
12986;SDS011;58897;51.960;5.582;2023-03-20T15:49:32;19.30;;;7.00;;
12986;SDS011;58897;51.960;5.582;2023-03-20T15:51:59;10.27;;;5.43;;
12986;SDS011;58897;51.960;5.582;2023-03-20T15:54:30;16.87;;;7.73;;
12986;SDS011;58897;51.960;5.582;2023-03-20T15:56:59;13.83;;;6.43;;
12986;SDS011;58897;51.960;5.582;2023-03-20T15:59:28;15.47;;;7.23;;
12986;SDS011;58897;51.960;5.582;2023-03-20T16:01:56;13.80;;;6.33;;
12986;SDS011;58897;51.960;5.582;2023-03-20T16:04:24;12.70;;;6.67;;
12986;SDS011;58897;51.960;5.582;2023-03-20T16:06:56;11.07;;;6.37;;
12986;SDS011;58897;51.960;5.582;2023-03-20T16:09:24;16.67;;;7.60;;
12986;SDS011;58897;51.960;5.582;2023-03-20T16:11:58;15.03;;;5.77;;
12986;SDS011;58897;51.960;5.582;2023-03-20T16:14:27;16.53;;;7.10;;
12986;SDS011;58897;51.960;5.582;2023-03-20T16:16:57;16.93;;;6.80;;
12986;SDS011;58897;51.960;5.582;2023-03-20T16:19:26;9.23;;;5.90;;
12986;SDS011;58897;51.960;5.582;2023-03-20T16:22:37;13.60;;;6.17;;
12986;SDS011;58897;51.960;5.582;2023-03-20T16:24:47;12.67;;;5.83;;
12986;SDS011;58897;51.960;5.582;2023-03-20T16:27:35;15.83;;;6.60;;
12986;SDS011;58897;51.960;5.582;2023-03-20T16:30:06;11.20;;;5.47;;
12986;SDS011;58897;51.960;5.582;2023-03-20T16:32:39;12.37;;;6.07;;
12986;SDS011;58897;51.960;5.582;2023-03-20T16:35:18;14.63;;;6.80;;
12986;SDS011;58897;51.960;5.582;2023-03-20T16:37:48;16.33;;;5.80;;
12986;SDS011;58897;51.960;5.582;2023-03-20T16:40:28;15.27;;;6.07;;
12986;SDS011;58897;51.960;5.582;2023-03-20T16:43:03;15.90;;;6.67;;
12986;SDS011;58897;51.960;5.582;2023-03-20T16:45:32;15.70;;;7.20;;
12986;SDS011;58897;51.960;5.582;2023-03-20T16:48:42;16.87;;;8.67;;
12986;SDS011;58897;51.960;5.582;2023-03-20T16:50:54;14.83;;;6.73;;
12986;SDS011;58897;51.960;5.582;2023-03-20T16:53:25;18.77;;;7.00;;
12986;SDS011;58897;51.960;5.582;2023-03-20T16:56:01;14.30;;;6.10;;
12986;SDS011;58897;51.960;5.582;2023-03-20T16:58:30;15.87;;;8.10;;
12986;SDS011;58897;51.960;5.582;2023-03-20T17:00:59;15.23;;;6.30;;
12986;SDS011;58897;51.960;5.582;2023-03-20T17:03:28;16.10;;;7.17;;
12986;SDS011;58897;51.960;5.582;2023-03-20T17:06:25;14.60;;;6.50;;
12986;SDS011;58897;51.960;5.582;2023-03-20T17:09:07;15.67;;;6.63;;
12986;SDS011;58897;51.960;5.582;2023-03-20T17:11:50;15.07;;;7.13;;
12986;SDS011;58897;51.960;5.582;2023-03-20T17:14:23;11.93;;;6.33;;
12986;SDS011;58897;51.960;5.582;2023-03-20T17:16:50;14.20;;;6.93;;
12986;SDS011;58897;51.960;5.582;2023-03-20T17:19:18;16.00;;;6.97;;
12986;SDS011;58897;51.960;5.582;2023-03-20T17:21:46;18.10;;;8.17;;
12986;SDS011;58897;51.960;5.582;2023-03-20T17:24:13;15.33;;;7.80;;
12986;SDS011;58897;51.960;5.582;2023-03-20T17:26:42;18.73;;;7.73;;
12986;SDS011;58897;51.960;5.582;2023-03-20T17:29:11;14.40;;;7.10;;
12986;SDS011;58897;51.960;5.582;2023-03-20T17:31:38;19.73;;;8.00;;
12986;SDS011;58897;51.960;5.582;2023-03-20T17:34:05;20.63;;;6.90;;